Time;durP1;ratioP1;P1;durP2;ratioP2;P2;SDS_P1;SDS_P2;PMS_P1;PMS_P2;Temp;Humidity;BMP_temperature;BMP_pressure;BME280_temperature;BME280_humidity;BME280_pressure;Samples;Min_cycle;Max_cycle;Signal;HPM_P1;HPM_P2
2022/01/14 00:01:59;;;;;;;25.50;14.23;;;;;;;2.69;69.97;98183.12;1770159;79;25750;-86
2022/01/14 00:04:25;;;;;;;27.95;15.08;;;;;;;2.71;70.02;98186.49;1735812;82;26450;-86
2022/01/14 00:06:53;;;;;;;24.15;12.85;;;;;;;2.72;70.01;98184.17;1770078;80;25782;-86
2022/01/14 00:09:19;;;;;;;23.85;13.78;;;;;;;2.71;70.01;98181.16;1735844;82;27353;-85
2022/01/14 00:11:52;;;;;;;21.02;13.25;;;;;;;2.70;70.01;98178.14;1735810;81;25726;-85
2022/01/14 00:14:23;;;;;;;23.00;12.88;;;;;;;2.70;70.02;98175.47;1735895;82;32433;-85
2022/01/14 00:16:50;;;;;;;21.97;13.38;;;;;;;2.69;70.04;98178.63;1735529;81;25738;-85
2022/01/14 00:19:18;;;;;;;24.63;12.80;;;;;;;2.71;70.10;98188.66;1770185;81;26331;-86
2022/01/14 00:21:45;;;;;;;24.35;12.82;;;;;;;2.70;70.10;98181.66;1735835;81;27481;-85
2022/01/14 00:32:24;;;;;;;23.85;12.93;;;;;;;2.73;70.11;98175.20;1735928;82;26295;-86
2022/01/14 00:34:46;;;;;;;19.65;11.55;;;;;;;2.71;70.06;98174.00;1735000;82;27473;-85
2022/01/14 00:37:15;;;;;;;19.32;12.37;;;;;;;2.71;70.07;98179.83;1735903;81;25782;-85
2022/01/14 00:39:43;;;;;;;25.70;12.78;;;;;;;2.68;70.06;98184.10;1770024;81;25725;-88
2022/01/14 00:42:11;;;;;;;19.07;12.18;;;;;;;2.66;70.07;98181.58;1735767;82;26539;-86
2022/01/14 00:44:37;;;;;;;22.82;12.37;;;;;;;2.65;70.09;98185.25;1770088;80;25757;-86
2022/01/14 00:47:05;;;;;;;20.20;11.60;;;;;;;2.64;70.07;98182.23;1735849;82;27611;-86
2022/01/14 00:49:32;;;;;;;19.48;11.33;;;;;;;2.64;70.08;98174.73;1735630;82;25843;-87
2022/01/14 00:51:58;;;;;;;21.60;11.63;;;;;;;2.61;70.09;98173.19;1770054;81;25736;-87
2022/01/14 00:54:26;;;;;;;22.07;11.73;;;;;;;2.61;70.12;98171.86;1735689;82;25740;-86
2022/01/14 00:59:28;;;;;;;22.07;12.13;;;;;;;2.62;70.16;98182.03;1735560;82;27456;-86
2022/01/14 01:01:59;;;;;;;19.27;11.53;;;;;;;2.62;70.18;98175.36;1769656;81;25739;-86
2022/01/14 01:04:32;;;;;;;20.35;11.55;;;;;;;2.62;70.17;98189.53;1769989;80;25815;-86
2022/01/14 01:07:01;;;;;;;22.25;12.50;;;;;;;2.62;70.21;98185.53;1769729;80;25739;-87
2022/01/14 01:09:29;;;;;;;19.77;11.93;;;;;;;2.65;70.22;98175.92;1769833;81;25289;-86
2022/01/14 01:12:17;;;;;;;19.73;12.00;;;;;;;2.66;70.18;98175.41;1770023;81;27543;-84
2022/01/14 01:14:51;;;;;;;21.73;11.85;;;;;;;2.66;70.14;98181.58;1769348;80;25746;-85
2022/01/14 01:17:16;;;;;;;27.02;13.83;;;;;;;2.61;70.01;98177.67;1769508;80;25786;-85
2022/01/14 01:19:43;;;;;;;23.42;12.70;;;;;;;2.53;70.03;98175.73;1735779;82;25840;-86
2022/01/14 01:22:10;;;;;;;21.25;13.22;;;;;;;2.52;70.14;98174.05;1735865;82;25761;-86
2022/01/14 01:24:37;;;;;;;23.77;12.85;;;;;;;2.47;70.10;98177.63;1769978;80;27526;-86
2022/01/14 01:27:07;;;;;;;25.17;14.20;;;;;;;2.41;70.12;98183.04;1735737;81;25955;-85
2022/01/14 01:32:05;;;;;;;25.68;14.00;;;;;;;2.39;70.29;98205.47;1735878;81;26468;-85
2022/01/14 01:34:31;;;;;;;27.52;13.90;;;;;;;2.28;70.22;98195.80;1735790;82;25688;-85
2022/01/14 01:37:01;;;;;;;26.35;13.65;;;;;;;2.19;70.31;98191.29;1769957;81;27362;-88
2022/01/14 01:39:32;;;;;;;26.23;15.05;;;;;;;2.16;70.50;98177.79;1769967;80;25801;-85
2022/01/14 01:42:06;;;;;;;30.20;15.53;;;;;;;2.13;70.54;98165.23;1770051;80;25709;-85
2022/01/14 01:44:35;;;;;;;30.20;15.53;;;;;;;2.17;70.66;98171.97;1770038;81;25755;-85
2022/01/14 01:47:04;;;;;;;27.10;14.28;;;;;;;2.20;70.72;98161.50;1735777;81;25697;-86
2022/01/14 01:49:35;;;;;;;22.98;13.30;;;;;;;2.24;70.78;98155.77;1770091;81;27367;-86
2022/01/14 01:52:04;;;;;;;22.13;13.10;;;;;;;2.29;70.77;98152.20;1735859;81;25706;-85
2022/01/14 01:54:30;;;;;;;23.20;13.45;;;;;;;2.34;70.80;98142.42;1735774;81;25759;-84
2022/01/14 01:56:58;;;;;;;26.30;15.03;;;;;;;2.36;70.79;98147.97;1769996;81;25763;-85
2022/01/14 01:59:26;;;;;;;25.00;14.28;;;;;;;2.37;70.69;98152.32;1770062;81;25842;-85
2022/01/14 02:01:57;;;;;;;28.27;14.47;;;;;;;2.39;70.65;98162.84;1769731;80;27393;-85
2022/01/14 02:04:24;;;;;;;24.60;14.43;;;;;;;2.33;70.51;98161.57;1734963;81;25651;-85
2022/01/14 02:06:55;;;;;;;25.70;14.47;;;;;;;2.29;70.61;98157.53;1770103;81;25707;-85
2022/01/14 02:09:23;;;;;;;28.25;14.83;;;;;;;2.28;70.64;98151.84;1735962;82;25795;-85
2022/01/14 02:11:50;;;;;;;26.17;14.13;;;;;;;2.25;70.61;98149.45;1770065;81;25842;-85
2022/01/14 02:14:41;;;;;;;25.05;14.63;;;;;;;2.14;70.57;98140.28;1769929;80;28339;-85
2022/01/14 02:22:53;;;;;;;26.75;14.47;;;;;;;2.04;70.94;98158.93;1735476;82;26517;-85
2022/01/14 02:25:29;;;;;;;29.07;16.00;;;;;;;2.00;71.02;98146.02;1769375;81;25707;-85
2022/01/14 02:28:05;;;;;;;24.23;13.45;;;;;;;2.01;71.13;98154.36;1735664;81;27513;-90
2022/01/14 02:30:35;;;;;;;25.00;13.53;;;;;;;2.05;71.07;98142.47;1731211;81;25721;-85
2022/01/14 02:33:02;;;;;;;24.10;13.68;;;;;;;2.06;71.08;98141.45;1769650;81;25705;-86
2022/01/14 02:35:30;;;;;;;28.77;13.85;;;;;;;2.10;71.17;98139.71;1735648;81;25847;-85
2022/01/14 02:37:57;;;;;;;24.60;13.05;;;;;;;2.18;71.25;98136.33;1770020;81;26360;-86
2022/01/14 02:40:24;;;;;;;26.50;13.53;;;;;;;2.25;71.31;98136.63;1706279;82;27451;-86
2022/01/14 02:42:50;;;;;;;23.30;13.65;;;;;;;2.33;71.23;98140.75;1705828;84;26535;-85
2022/01/14 02:45:18;;;;;;;25.55;13.43;;;;;;;2.39;71.19;98142.37;1725636;83;25857;-86
2022/01/14 02:47:45;;;;;;;21.70;12.33;;;;;;;2.45;71.17;98138.27;1769904;81;25911;-85
2022/01/14 02:50:17;;;;;;;25.40;13.72;;;;;;;2.47;71.11;98142.48;1769975;81;25742;-88
2022/01/14 02:55:22;;;;;;;25.12;14.53;;;;;;;2.50;70.98;98110.23;1735606;82;26074;-85
2022/01/14 02:57:53;;;;;;;25.65;14.70;;;;;;;2.53;70.96;98105.95;1735736;82;25682;-85
2022/01/14 03:00:24;;;;;;;26.95;12.82;;;;;;;2.58;70.99;98103.33;1735729;81;25743;-86
2022/01/14 03:02:52;;;;;;;21.50;12.85;;;;;;;2.62;70.93;98110.06;1735819;81;25852;-86
2022/01/14 03:05:20;;;;;;;26.35;13.38;;;;;;;2.65;70.84;98116.44;1735872;82;27595;-85
2022/01/14 03:07:48;;;;;;;22.27;13.30;;;;;;;2.66;70.78;98115.42;1735726;82;25648;-85
2022/01/14 03:10:18;;;;;;;23.22;13.50;;;;;;;2.68;70.77;98118.80;1735782;81;25819;-85
2022/01/14 03:12:47;;;;;;;22.42;13.58;;;;;;;2.71;70.69;98115.36;1770044;80;25866;-85
2022/01/14 03:15:15;;;;;;;24.37;13.48;;;;;;;2.72;70.61;98106.86;1770199;81;25640;-87
2022/01/14 03:17:43;;;;;;;25.08;13.53;;;;;;;2.71;70.56;98112.69;1770000;81;27572;-85
2022/01/14 03:20:26;;;;;;;25.60;12.93;;;;;;;2.71;70.51;98099.84;1770014;80;25260;-84
2022/01/14 03:22:52;;;;;;;25.40;13.60;;;;;;;2.70;70.51;98084.84;1732524;81;25814;-85
2022/01/14 03:27:54;;;;;;;28.35;14.35;;;;;;;2.70;70.50;98087.50;1769912;81;25643;-85
2022/01/14 03:30:21;;;;;;;25.17;14.50;;;;;;;2.70;70.45;98082.17;1770112;80;28595;-85
2022/01/14 03:32:47;;;;;;;25.70;14.05;;;;;;;2.67;70.40;98093.12;1769927;81;26053;-85
2022/01/14 03:35:14;;;;;;;24.35;14.55;;;;;;;2.62;70.37;98083.41;1770081;80;25594;-85
2022/01/14 03:37:41;;;;;;;22.77;13.55;;;;;;;2.58;70.40;98082.00;1770178;81;25781;-85
2022/01/14 03:40:08;;;;;;;25.17;13.75;;;;;;;2.59;70.47;98083.69;1770119;81;25766;-86
2022/01/14 03:42:35;;;;;;;24.75;13.95;;;;;;;2.59;70.45;98083.69;1770065;81;27309;-86
2022/01/14 03:45:03;;;;;;;22.48;14.40;;;;;;;2.60;70.46;98080.87;1769984;80;25798;-85
2022/01/14 03:47:29;;;;;;;26.15;15.60;;;;;;;2.60;70.41;98076.88;1770075;80;25803;-85
2022/01/14 03:49:56;;;;;;;22.50;13.70;;;;;;;2.61;70.40;98072.39;1770017;81;25774;-86
2022/01/14 03:52:22;;;;;;;26.05;15.68;;;;;;;2.54;70.28;98063.63;1735869;82;26355;-86
2022/01/14 03:54:49;;;;;;;24.27;13.43;;;;;;;2.46;70.33;98063.52;1735821;82;27586;-86
2022/01/14 03:57:16;;;;;;;29.10;15.10;;;;;;;2.39;70.31;98061.10;1769994;80;25336;-88
2022/01/14 03:59:42;;;;;;;27.77;15.35;;;;;;;2.38;70.37;98060.75;1735753;82;25744;-86
2022/01/14 04:02:09;;;;;;;25.72;14.80;;;;;;;2.35;70.39;98054.86;1735535;82;26579;-86
2022/01/14 04:04:35;;;;;;;24.85;14.07;;;;;;;2.32;70.39;98051.14;1735809;81;25736;-86
2022/01/14 04:07:02;;;;;;;23.40;14.00;;;;;;;2.30;70.38;98052.61;1735766;81;27247;-86
2022/01/14 04:09:31;;;;;;;25.02;14.23;;;;;;;2.27;70.37;98047.60;1735713;82;25803;-85
2022/01/14 04:12:01;;;;;;;25.35;14.43;;;;;;;2.24;70.42;98046.55;1770040;80;25801;-85
2022/01/14 04:16:53;;;;;;;25.10;13.58;;;;;;;2.20;70.50;98045.14;1735807;81;25682;-86
2022/01/14 04:19:20;;;;;;;22.42;12.95;;;;;;;2.23;70.65;98045.36;1735768;81;27358;-86
2022/01/14 04:21:46;;;;;;;23.20;14.15;;;;;;;2.23;70.52;98047.53;1735662;82;25725;-86
2022/01/14 04:24:13;;;;;;;23.52;13.60;;;;;;;2.22;70.46;98041.84;1735807;82;25751;-85
2022/01/14 04:26:39;;;;;;;21.35;14.00;;;;;;;2.23;70.50;98032.88;1739385;81;25688;-84
2022/01/14 04:29:06;;;;;;;31.55;17.25;;;;;;;2.22;70.46;98049.84;1743923;82;25646;-85
2022/01/14 04:31:32;;;;;;;27.35;15.18;;;;;;;2.11;70.31;98046.01;1743959;81;28070;-85
2022/01/14 04:33:59;;;;;;;26.15;15.78;;;;;;;1.97;70.47;98039.78;1743872;82;25243;-85
2022/01/14 04:36:25;;;;;;;27.73;15.20;;;;;;;1.98;70.67;98044.13;1743947;81;25802;-85
2022/01/14 04:38:52;;;;;;;28.55;15.05;;;;;;;1.98;70.64;98038.81;1743678;82;25789;-85
2022/01/14 04:41:19;;;;;;;27.95;16.23;;;;;;;1.96;70.64;98047.42;1743988;81;26094;-86
2022/01/14 04:43:45;;;;;;;23.50;14.05;;;;;;;1.86;70.56;98039.94;1743886;82;27353;-86
2022/01/14 04:48:39;;;;;;;39.65;18.77;;;;;;;1.85;70.92;98037.77;1743870;82;25773;-88
2022/01/14 04:51:08;;;;;;;34.90;17.37;;;;;;;1.84;70.91;98032.58;1743947;82;25732;-86
2022/01/14 04:53:35;;;;;;;31.68;16.52;;;;;;;1.88;70.93;98028.67;1743961;81;25745;-86
2022/01/14 04:56:02;;;;;;;27.82;16.45;;;;;;;1.93;70.96;98030.42;1743930;81;27318;-86
2022/01/14 04:58:29;;;;;;;33.40;17.35;;;;;;;1.96;70.84;98030.11;1743755;82;25801;-85
2022/01/14 05:00:56;;;;;;;29.18;16.50;;;;;;;1.98;70.92;98030.33;1743987;82;25723;-85
2022/01/14 05:03:23;;;;;;;26.37;16.00;;;;;;;2.02;70.93;98033.06;1743900;81;25746;-87
2022/01/14 05:05:53;;;;;;;24.27;13.70;;;;;;;2.03;70.82;98033.91;1744050;81;25852;-85
2022/01/14 05:08:22;;;;;;;26.50;14.60;;;;;;;2.03;70.83;98035.23;1743657;81;27397;-85
2022/01/14 05:13:19;;;;;;;26.12;14.47;;;;;;;2.07;70.74;98028.14;1744066;81;25761;-86
2022/01/14 05:15:46;;;;;;;26.68;13.85;;;;;;;2.08;70.77;98033.81;1743899;81;26524;-86
2022/01/14 05:18:13;;;;;;;28.02;16.48;;;;;;;2.06;70.75;98038.92;1743891;82;25764;-87
2022/01/14 05:20:39;;;;;;;27.10;15.38;;;;;;;2.07;70.79;98032.62;1743864;81;27366;-87
2022/01/14 05:23:06;;;;;;;25.50;13.88;;;;;;;2.10;70.79;98033.19;1743810;82;25838;-87
2022/01/14 05:25:33;;;;;;;22.58;14.05;;;;;;;2.12;70.78;98027.72;1743880;82;25251;-86
2022/01/14 05:27:59;;;;;;;23.12;14.10;;;;;;;2.11;70.77;98028.70;1743611;81;26423;-85
2022/01/14 05:30:26;;;;;;;24.77;14.00;;;;;;;2.09;70.81;98029.33;1743865;82;25855;-86
2022/01/14 05:32:54;;;;;;;24.23;14.03;;;;;;;2.09;70.90;98025.33;1743620;81;27429;-86
2022/01/14 05:35:24;;;;;;;26.42;15.15;;;;;;;2.12;70.91;98020.56;1743948;81;25729;-86
2022/01/14 05:37:51;;;;;;;36.55;19.25;;;;;;;2.16;70.88;98023.30;1744011;82;25690;-86
2022/01/14 05:40:20;;;;;;;34.58;19.73;;;;;;;2.18;70.78;98025.80;1743990;82;25852;-85
2022/01/14 05:42:47;;;;;;;38.25;20.50;;;;;;;2.22;70.81;98015.21;1743822;82;25744;-85
2022/01/14 05:45:16;;;;;;;25.72;14.55;;;;;;;2.26;70.78;98012.62;1743882;81;28303;-85
2022/01/14 05:47:43;;;;;;;26.75;13.95;;;;;;;2.29;70.63;98012.83;1743704;82;26245;-86
2022/01/14 05:50:18;;;;;;;28.67;15.13;;;;;;;2.31;70.56;98006.34;1743792;82;25401;-85
2022/01/14 05:52:45;;;;;;;24.52;14.95;;;;;;;2.30;70.56;98005.99;1743933;82;26286;-86
2022/01/14 05:55:15;;;;;;;27.07;14.30;;;;;;;2.30;70.48;98004.66;1743891;81;25734;-86
2022/01/14 05:57:41;;;;;;;40.10;19.25;;;;;;;2.31;70.47;98019.66;1743898;82;27484;-86
2022/01/14 06:00:12;;;;;;;46.42;21.85;;;;;;;2.29;70.44;98009.67;1743581;82;25898;-85
2022/01/14 06:02:39;;;;;;;39.58;18.30;;;;;;;2.34;70.48;98003.89;1743820;82;25684;-86
2022/01/14 06:05:07;;;;;;;22.60;13.70;;;;;;;2.37;70.42;98000.94;1743894;82;26537;-86
2022/01/14 06:07:34;;;;;;;26.75;14.03;;;;;;;2.36;70.38;97996.59;1743882;82;25667;-85
2022/01/14 06:10:00;;;;;;;31.80;15.98;;;;;;;2.36;70.39;97996.11;1743890;81;27585;-87
2022/01/14 06:12:27;;;;;;;24.52;14.38;;;;;;;2.39;70.37;97999.81;1743822;82;25808;-86
2022/01/14 06:14:53;;;;;;;32.93;19.07;;;;;;;2.35;70.25;97988.25;1743961;82;25729;-87
2022/01/14 06:17:20;;;;;;;34.15;19.12;;;;;;;2.34;70.27;97992.74;1743872;81;25768;-86
2022/01/14 06:19:46;;;;;;;31.17;17.87;;;;;;;2.33;70.22;97982.23;1743852;81;25701;-85
2022/01/14 06:22:13;;;;;;;27.13;15.03;;;;;;;2.32;70.19;97981.38;1743863;82;27480;-86
2022/01/14 06:24:40;;;;;;;24.55;14.70;;;;;;;2.34;70.25;97984.75;1743806;82;25732;-88
2022/01/14 06:27:07;;;;;;;29.60;14.68;;;;;;;2.31;70.11;97978.38;1740723;81;25796;-86
2022/01/14 06:29:33;;;;;;;25.20;15.23;;;;;;;2.24;70.04;97986.61;1735717;81;26531;-87
2022/01/14 06:32:00;;;;;;;28.02;15.72;;;;;;;2.21;70.08;97978.91;1735666;82;25718;-86
2022/01/14 06:34:26;;;;;;;25.48;15.25;;;;;;;2.19;70.11;97963.55;1735704;81;28387;-86
2022/01/14 06:36:53;;;;;;;31.52;16.30;;;;;;;2.19;70.12;97962.22;1735664;82;26488;-86
2022/01/14 06:39:20;;;;;;;29.23;15.13;;;;;;;2.17;70.07;97959.70;1735792;82;25659;-87
2022/01/14 06:41:46;;;;;;;27.40;15.60;;;;;;;2.13;70.10;97957.48;1735519;82;25804;-86
2022/01/14 06:44:13;;;;;;;28.02;15.43;;;;;;;2.10;70.05;97955.95;1735870;82;25856;-86
2022/01/14 06:46:39;;;;;;;24.47;14.70;;;;;;;2.10;70.06;97949.78;1735835;81;28178;-86
2022/01/14 06:49:06;;;;;;;44.88;23.52;;;;;;;2.06;70.01;97942.56;1735777;82;26500;-87
2022/01/14 06:51:33;;;;;;;36.75;21.30;;;;;;;2.05;70.02;97941.41;1735878;81;25805;-86
2022/01/14 06:53:59;;;;;;;32.13;18.75;;;;;;;1.98;69.98;97925.16;1735919;81;25765;-86
2022/01/14 06:56:26;;;;;;;34.03;18.15;;;;;;;1.95;69.96;97920.60;1735852;81;25807;-87
2022/01/14 06:58:52;;;;;;;28.80;16.67;;;;;;;1.88;69.86;97918.19;1735592;81;28259;-86
2022/01/14 07:01:19;;;;;;;33.85;17.40;;;;;;;1.80;69.81;97925.08;1735767;82;26027;-86
2022/01/14 07:03:45;;;;;;;33.45;19.50;;;;;;;1.71;69.74;97925.08;1735670;81;25756;-87
2022/01/14 07:06:12;;;;;;;44.53;20.17;;;;;;;1.67;69.79;97916.56;1735857;81;25843;-86
2022/01/14 07:08:39;;;;;;;34.38;16.23;;;;;;;1.60;69.78;97916.77;1770192;81;26259;-87
2022/01/14 07:11:06;;;;;;;28.75;16.27;;;;;;;1.54;69.75;97933.81;1735916;81;27516;-86
2022/01/14 07:13:33;;;;;;;29.95;17.20;;;;;;;1.48;69.80;97924.56;1770007;81;25770;-86
2022/01/14 07:16:00;;;;;;;41.60;20.70;;;;;;;1.45;69.86;97938.14;1735810;82;25926;-86
2022/01/14 07:18:26;;;;;;;34.58;18.55;;;;;;;1.47;69.96;97949.97;1770112;81;25775;-87
2022/01/14 07:20:53;;;;;;;32.65;17.20;;;;;;;1.53;70.01;97944.94;1735843;82;25713;-87
2022/01/14 07:23:19;;;;;;;32.73;16.95;;;;;;;1.54;70.00;97942.63;1769947;81;27400;-86
2022/01/14 07:25:46;;;;;;;32.90;18.55;;;;;;;1.56;70.03;97951.32;1735695;81;25763;-87
2022/01/14 07:28:12;;;;;;;25.72;14.63;;;;;;;1.54;70.10;97957.76;1769828;80;25709;-85
2022/01/14 07:30:39;;;;;;;33.25;18.60;;;;;;;1.57;70.19;97947.65;1735746;82;25966;-87
2022/01/14 07:33:06;;;;;;;30.17;16.10;;;;;;;1.65;70.27;97950.45;1770039;81;25778;-86
2022/01/14 07:35:32;;;;;;;25.60;14.33;;;;;;;1.72;70.27;97962.20;1735804;81;27532;-88
2022/01/14 07:37:59;;;;;;;25.55;15.38;;;;;;;1.77;70.20;97957.30;1769898;80;25761;-85
2022/01/14 07:40:25;;;;;;;25.50;15.40;;;;;;;1.79;70.08;97975.31;1735908;82;25765;-86
2022/01/14 07:42:52;;;;;;;30.70;18.48;;;;;;;1.81;70.03;97978.64;1770033;81;26371;-87
2022/01/14 07:45:20;;;;;;;26.15;14.38;;;;;;;1.84;69.88;97976.19;1735869;81;25756;-85
2022/01/14 07:47:47;;;;;;;30.68;16.17;;;;;;;1.81;69.98;97978.64;1735750;81;28292;-87
2022/01/14 07:50:13;;;;;;;32.90;16.57;;;;;;;1.83;69.92;97977.66;1769930;81;25691;-86
2022/01/14 07:52:40;;;;;;;26.05;15.20;;;;;;;1.85;69.91;97979.20;1770113;81;25717;-87
2022/01/14 07:55:08;;;;;;;28.40;16.25;;;;;;;1.90;69.92;97978.78;1735793;81;25898;-86
2022/01/14 07:57:34;;;;;;;32.10;18.62;;;;;;;1.93;69.92;97970.52;1735837;82;26252;-88
2022/01/14 08:00:03;;;;;;;35.23;20.35;;;;;;;1.96;69.92;97978.20;1769696;80;27479;-87
2022/01/14 08:02:30;;;;;;;35.45;20.48;;;;;;;2.00;69.93;97980.93;1770054;81;26087;-86
2022/01/14 08:04:56;;;;;;;33.35;19.27;;;;;;;2.03;69.92;97980.66;1735774;82;25772;-87
2022/01/14 08:07:24;;;;;;;34.75;19.57;;;;;;;2.05;69.90;97979.50;1762888;81;25802;-87
2022/01/14 08:09:51;;;;;;;37.05;20.05;;;;;;;2.07;69.84;97977.53;1739344;82;25404;-87
2022/01/14 08:12:17;;;;;;;50.78;25.72;;;;;;;2.11;69.82;97982.09;1766119;80;27462;-88
2022/01/14 08:14:44;;;;;;;74.82;34.05;;;;;;;2.14;69.78;97977.33;1769901;81;25886;-87
2022/01/14 08:17:12;;;;;;;46.88;24.70;;;;;;;2.18;69.79;97980.52;1761177;81;25790;-87
2022/01/14 08:19:39;;;;;;;41.42;22.22;;;;;;;2.21;69.86;97966.91;1735754;81;25856;-88
2022/01/14 08:22:07;;;;;;;41.20;23.40;;;;;;;2.19;70.00;97971.55;1754524;81;25787;-88
2022/01/14 08:24:35;;;;;;;39.05;19.95;;;;;;;2.20;70.10;97970.56;1730535;82;27545;-86
2022/01/14 08:27:05;;;;;;;37.88;21.68;;;;;;;2.22;70.22;97983.25;1735538;81;25781;-87
2022/01/14 08:29:33;;;;;;;38.13;22.00;;;;;;;2.26;70.24;97978.48;1769997;81;25873;-87
2022/01/14 08:32:00;;;;;;;26.33;15.95;;;;;;;2.28;70.22;97973.36;1730456;81;26412;-87
2022/01/14 08:34:27;;;;;;;32.35;18.20;;;;;;;2.28;70.25;97975.18;1717166;83;25749;-88
2022/01/14 08:36:54;;;;;;;32.83;19.67;;;;;;;2.28;70.28;97960.53;1734763;81;28015;-88
2022/01/14 08:39:21;;;;;;;35.10;19.95;;;;;;;2.32;70.37;97956.56;1735667;81;26300;-88
2022/01/14 08:41:48;;;;;;;36.48;18.85;;;;;;;2.35;70.32;97947.80;1735354;82;25762;-88
2022/01/14 08:44:15;;;;;;;36.73;19.95;;;;;;;2.37;70.25;97949.83;1735763;81;26374;-86
2022/01/14 08:46:42;;;;;;;30.15;17.37;;;;;;;2.37;70.30;97940.50;1735820;81;25935;-89
2022/01/14 08:49:09;;;;;;;44.53;22.17;;;;;;;2.37;70.27;97948.50;1735718;82;27627;-93
2022/01/14 08:51:37;;;;;;;40.03;22.67;;;;;;;2.38;70.32;97946.18;1735408;82;25903;-89
2022/01/14 08:54:04;;;;;;;31.27;18.10;;;;;;;2.33;70.30;97963.09;1736030;81;25762;-87
2022/01/14 08:56:33;;;;;;;29.12;16.73;;;;;;;2.30;70.31;97956.71;1735808;81;25771;-88
2022/01/14 08:59:00;;;;;;;33.78;19.32;;;;;;;2.28;70.42;97960.04;1735209;82;25793;-90
2022/01/14 09:01:27;;;;;;;31.30;17.52;;;;;;;2.28;70.40;97961.86;1735923;82;28258;-87
2022/01/14 09:03:54;;;;;;;33.53;18.27;;;;;;;2.28;70.48;97959.20;1735371;82;25921;-84
2022/01/14 09:06:21;;;;;;;33.33;17.92;;;;;;;2.28;70.55;97956.53;1735416;81;25746;-87
2022/01/14 09:08:48;;;;;;;31.82;18.30;;;;;;;2.29;70.55;97957.72;1725310;82;25919;-87
2022/01/14 09:11:14;;;;;;;32.42;16.77;;;;;;;2.31;70.63;97957.06;1761573;81;25871;-88
2022/01/14 09:13:41;;;;;;;31.20;17.85;;;;;;;2.35;70.56;97953.62;1764866;81;27931;-87
2022/01/14 09:16:08;;;;;;;27.25;16.48;;;;;;;2.32;70.62;97949.41;1735839;81;25640;-87
2022/01/14 09:18:34;;;;;;;34.18;19.75;;;;;;;2.35;70.63;97937.14;1763705;81;25864;-87
2022/01/14 09:21:01;;;;;;;31.87;19.12;;;;;;;2.39;70.62;97923.05;1735642;81;26317;-88
2022/01/14 09:23:29;;;;;;;39.55;22.55;;;;;;;2.42;70.59;97916.91;1769902;80;25693;-87
2022/01/14 09:25:56;;;;;;;29.02;17.67;;;;;;;2.43;70.58;97918.58;1734588;81;27411;-91
2022/01/14 09:28:23;;;;;;;33.58;18.95;;;;;;;2.45;70.52;97915.77;1726784;82;25349;-87
2022/01/14 09:30:49;;;;;;;37.25;21.77;;;;;;;2.41;70.53;97917.08;1734140;82;25908;-85
2022/01/14 09:33:17;;;;;;;30.37;17.73;;;;;;;2.40;70.56;97914.91;1729996;82;26482;-89
2022/01/14 09:35:46;;;;;;;33.33;18.52;;;;;;;2.38;70.64;97908.88;1734012;82;25716;-87
2022/01/14 09:38:12;;;;;;;36.38;20.27;;;;;;;2.39;70.66;97917.22;1730055;82;27583;-86
2022/01/14 09:40:43;;;;;;;34.53;18.23;;;;;;;2.41;70.76;97909.92;1729833;82;25741;-85
2022/01/14 09:43:14;;;;;;;27.25;16.90;;;;;;;2.45;70.81;97915.77;1730576;82;25745;-87
2022/01/14 09:45:41;;;;;;;29.23;16.93;;;;;;;2.43;70.73;97911.92;1730334;82;25777;-87
2022/01/14 09:48:08;;;;;;;31.45;17.35;;;;;;;2.41;70.82;97908.59;1707961;82;25312;-86
2022/01/14 09:50:36;;;;;;;27.62;16.60;;;;;;;2.45;70.81;97894.45;1702531;82;48967;-86
2022/01/14 09:53:03;;;;;;;25.52;15.30;;;;;;;2.46;70.84;97902.30;1725741;82;25724;-88
2022/01/14 09:55:29;;;;;;;29.77;16.90;;;;;;;2.40;70.84;97892.26;1734410;82;26340;-87
2022/01/14 09:57:57;;;;;;;27.35;17.07;;;;;;;2.43;71.02;97896.42;1733998;82;25726;-87
2022/01/14 10:00:24;;;;;;;27.65;17.30;;;;;;;2.47;70.96;97895.99;1734377;82;25709;-88
2022/01/14 10:02:51;;;;;;;24.70;14.90;;;;;;;2.50;70.95;97886.38;1734382;82;27541;-86
2022/01/14 10:05:39;;;;;;;27.27;15.15;;;;;;;2.52;71.06;97887.07;1734227;82;25825;-89
2022/01/14 10:08:19;;;;;;;23.18;14.60;;;;;;;2.54;71.01;97883.73;1734385;82;25732;-86
2022/01/14 10:11:00;;;;;;;25.35;14.70;;;;;;;2.55;70.97;97864.59;1734160;82;25754;-85
2022/01/14 10:13:34;;;;;;;24.85;14.30;;;;;;;2.59;71.01;97859.80;1734460;82;25807;-86
2022/01/14 10:16:07;;;;;;;27.65;16.42;;;;;;;2.61;71.05;97864.00;1707154;82;28159;-89
2022/01/14 10:18:35;;;;;;;29.15;17.57;;;;;;;2.66;71.11;97858.20;1734413;82;25744;-87
2022/01/14 10:21:06;;;;;;;23.27;14.05;;;;;;;2.72;71.12;97860.28;1734360;82;25951;-90
2022/01/14 10:23:45;;;;;;;25.60;14.50;;;;;;;2.76;71.04;97857.66;1734326;82;25980;-86
2022/01/14 10:26:14;;;;;;;25.52;15.00;;;;;;;2.77;71.06;97838.02;1734432;82;25748;-86
2022/01/14 10:28:44;;;;;;;28.55;15.32;;;;;;;2.82;71.08;97839.72;1730479;82;28147;-85
2022/01/14 10:31:11;;;;;;;20.25;12.78;;;;;;;2.88;71.08;97836.45;1725185;83;25694;-85
2022/01/14 10:33:38;;;;;;;23.57;13.68;;;;;;;2.91;71.08;97825.45;1725565;83;25785;-85
2022/01/14 10:36:05;;;;;;;21.27;12.68;;;;;;;2.96;71.08;97830.34;1725429;83;26446;-87
2022/01/14 10:38:46;;;;;;;23.40;14.30;;;;;;;2.98;71.08;97821.20;1770011;81;25719;-87
2022/01/14 10:41:09;;;;;;;23.15;14.28;;;;;;;3.03;71.09;97824.23;1769258;80;27549;-86
2022/01/14 10:43:36;;;;;;;23.67;14.45;;;;;;;3.07;71.09;97824.27;1735720;81;25697;-91
2022/01/14 10:46:09;;;;;;;21.77;13.58;;;;;;;3.11;71.05;97829.65;1769897;80;25768;-86
2022/01/14 10:48:40;;;;;;;22.40;12.15;;;;;;;3.12;71.08;97825.99;1735621;81;25915;-87
2022/01/14 10:51:11;;;;;;;22.62;14.43;;;;;;;3.17;71.09;97818.34;1769893;81;25895;-89
2022/01/14 10:53:42;;;;;;;20.02;11.60;;;;;;;3.20;71.12;97820.71;1735735;81;27639;-88
2022/01/14 10:56:13;;;;;;;22.75;13.35;;;;;;;3.22;71.08;97816.06;1733955;81;26232;-87
2022/01/14 10:58:44;;;;;;;24.32;12.60;;;;;;;3.29;71.13;97816.77;1735361;82;25833;-86
2022/01/14 11:01:17;;;;;;;26.73;14.55;;;;;;;3.34;71.10;97805.14;1735659;81;26639;-86
2022/01/14 11:03:47;;;;;;;19.52;11.80;;;;;;;3.35;71.09;97804.98;1769644;81;25750;-87
2022/01/14 11:06:40;;;;;;;21.40;13.10;;;;;;;3.40;71.12;97809.34;1735688;82;27366;-87
2022/01/14 11:09:22;;;;;;;20.72;12.58;;;;;;;3.47;71.10;97801.56;1769994;80;25688;-85
2022/01/14 11:11:50;;;;;;;18.95;11.88;;;;;;;3.52;71.08;97800.08;1769708;80;25778;-85
2022/01/14 11:14:17;;;;;;;21.95;12.78;;;;;;;3.57;71.08;97791.61;1735691;82;25857;-86
2022/01/14 11:16:45;;;;;;;24.10;13.83;;;;;;;3.63;71.04;97786.95;1770037;81;25801;-87
2022/01/14 11:19:14;;;;;;;19.07;11.28;;;;;;;3.68;71.04;97791.33;1762622;81;28175;-86
2022/01/14 11:24:37;;;;;;;16.55;10.72;;;;;;;3.76;71.04;97771.34;1735778;81;25817;-87
2022/01/14 11:27:10;;;;;;;16.97;11.03;;;;;;;3.82;71.09;97761.37;1734697;81;25781;-87
2022/01/14 11:29:41;;;;;;;17.95;11.30;;;;;;;3.88;71.02;97760.71;1735519;81;26438;-87
2022/01/14 11:32:09;;;;;;;17.30;10.90;;;;;;;3.93;70.99;97755.73;1770233;80;28252;-88
2022/01/14 11:34:42;;;;;;;18.87;11.25;;;;;;;3.98;70.93;97744.05;1735750;81;25761;-90
2022/01/14 11:37:14;;;;;;;23.30;13.95;;;;;;;4.03;70.92;97738.73;1735877;82;25758;-90
2022/01/14 11:40:06;;;;;;;24.33;14.10;;;;;;;4.07;70.85;97737.42;1736115;82;25744;-87
2022/01/14 11:42:59;;;;;;;17.85;11.73;;;;;;;4.10;70.87;97739.77;1769438;80;25758;-89
2022/01/14 11:45:48;;;;;;;17.67;11.85;;;;;;;4.15;70.83;97730.75;1770079;80;27459;-87
2022/01/14 11:48:39;;;;;;;17.23;11.48;;;;;;;4.18;70.79;97723.25;1735579;82;26525;-87
2022/01/14 11:51:09;;;;;;;30.72;18.48;;;;;;;4.22;70.81;97721.94;1735625;81;25686;-87
2022/01/14 11:53:43;;;;;;;16.07;10.48;;;;;;;4.26;70.80;97721.09;1735876;81;26577;-87
2022/01/14 11:56:35;;;;;;;15.83;10.43;;;;;;;4.28;70.73;97720.43;1769710;81;25877;-86
2022/01/14 11:59:26;;;;;;;15.90;9.30;;;;;;;4.33;70.71;97730.14;1735667;82;27406;-86
2022/01/14 12:01:57;;;;;;;22.05;13.25;;;;;;;4.38;70.67;97729.13;1769743;80;26279;-86
2022/01/14 12:05:00;;;;;;;21.77;12.95;;;;;;;4.42;70.60;97725.63;1770098;81;25762;-86
2022/01/14 12:07:27;;;;;;;21.45;12.45;;;;;;;4.42;70.59;97721.13;1735969;82;26301;-85